Time;durP1;ratioP1;P1;durP2;ratioP2;P2;SDS_P1;SDS_P2;PMS_P1;PMS_P2;Temp;Humidity;BMP_temperature;BMP_pressure;BME280_temperature;BME280_humidity;BME280_pressure;Samples;Min_cycle;Max_cycle;Signal;HPM_P1;HPM_P2
2021/08/14 00:01:47;;;;;;;29.13;5.78;;;;;;;;;;4988378;28;20866;-59
2021/08/14 00:04:16;;;;;;;20.05;4.88;;;;;;;;;;5002674;28;20041;-59
2021/08/14 00:06:41;;;;;;;26.13;5.63;;;;;;;;;;4987059;28;20120;-59
2021/08/14 00:09:07;;;;;;;25.17;5.65;;;;;;;;;;5001419;28;20025;-59
2021/08/14 00:11:38;;;;;;;28.80;6.47;;;;;;;;;;5001840;28;20025;-59
2021/08/14 00:14:06;;;;;;;20.80;5.55;;;;;;;;;;4967992;28;20037;-60
2021/08/14 00:16:33;;;;;;;28.45;5.32;;;;;;;;;;4980016;28;20765;-59
2021/08/14 00:18:59;;;;;;;24.70;5.40;;;;;;;;;;4982818;28;20045;-59
2021/08/14 00:21:31;;;;;;;18.88;5.97;;;;;;;;;;5003101;28;20144;-59
2021/08/14 00:23:59;;;;;;;21.15;5.35;;;;;;;;;;4981915;28;20064;-59
2021/08/14 00:26:27;;;;;;;18.88;5.63;;;;;;;;;;5001475;28;20806;-60
2021/08/14 00:28:55;;;;;;;22.40;5.30;;;;;;;;;;4984791;28;20626;-59
2021/08/14 00:31:26;;;;;;;22.75;5.55;;;;;;;;;;4982738;28;20033;-59
2021/08/14 00:33:52;;;;;;;23.00;6.63;;;;;;;;;;4997263;28;20061;-59
2021/08/14 00:36:17;;;;;;;26.15;5.50;;;;;;;;;;4991805;28;20045;-58
2021/08/14 00:38:45;;;;;;;25.23;5.75;;;;;;;;;;4983801;28;20045;-60
2021/08/14 00:41:10;;;;;;;28.70;5.32;;;;;;;;;;4968341;28;20045;-59
2021/08/14 00:43:39;;;;;;;22.00;5.15;;;;;;;;;;4993274;28;20037;-60
2021/08/14 00:46:07;;;;;;;18.70;5.63;;;;;;;;;;4978038;28;20170;-59
2021/08/14 00:48:35;;;;;;;22.40;5.10;;;;;;;;;;4982535;28;20029;-59
2021/08/14 00:51:01;;;;;;;24.45;5.95;;;;;;;;;;4984245;28;20083;-60
2021/08/14 00:53:26;;;;;;;25.27;6.05;;;;;;;;;;4983281;28;20127;-61
2021/08/14 00:55:54;;;;;;;21.02;5.22;;;;;;;;;;5002277;28;20459;-60
2021/08/14 00:58:22;;;;;;;22.25;5.88;;;;;;;;;;5002754;28;20026;-60
2021/08/14 01:00:50;;;;;;;28.70;4.82;;;;;;;;;;5001755;28;20122;-59
2021/08/14 01:03:20;;;;;;;16.02;4.68;;;;;;;;;;5001196;28;22013;-59
2021/08/14 01:05:48;;;;;;;31.63;6.22;;;;;;;;;;5000220;28;20033;-57
2021/08/14 01:08:14;;;;;;;14.65;4.55;;;;;;;;;;4969204;28;20084;-59
2021/08/14 01:10:40;;;;;;;25.38;4.60;;;;;;;;;;5001485;28;20030;-60
2021/08/14 01:13:10;;;;;;;24.90;4.75;;;;;;;;;;4954746;28;20065;-58
2021/08/14 01:15:42;;;;;;;15.55;4.82;;;;;;;;;;4997982;28;20079;-58
2021/08/14 01:18:12;;;;;;;25.30;5.15;;;;;;;;;;5001760;28;20029;-58
2021/08/14 01:20:38;;;;;;;19.77;5.22;;;;;;;;;;5000280;28;20037;-58
2021/08/14 01:23:05;;;;;;;16.15;5.18;;;;;;;;;;5001426;28;20032;-60
2021/08/14 01:25:30;;;;;;;19.85;5.13;;;;;;;;;;4985063;28;20025;-59
2021/08/14 01:27:56;;;;;;;30.25;5.75;;;;;;;;;;4984810;28;20906;-60
2021/08/14 01:30:27;;;;;;;17.35;5.10;;;;;;;;;;4985913;28;20034;-59
2021/08/14 01:32:53;;;;;;;25.80;4.95;;;;;;;;;;5005950;28;20065;-60
2021/08/14 01:35:19;;;;;;;27.95;5.22;;;;;;;;;;4989460;28;20235;-59
2021/08/14 01:37:46;;;;;;;20.55;4.75;;;;;;;;;;4986263;28;20061;-60
2021/08/14 01:40:14;;;;;;;23.40;5.05;;;;;;;;;;5002193;28;20519;-59
2021/08/14 01:42:39;;;;;;;20.35;6.55;;;;;;;;;;5006253;28;20513;-59
2021/08/14 01:45:08;;;;;;;13.80;5.07;;;;;;;;;;4991829;28;20045;-59
2021/08/14 01:47:33;;;;;;;16.33;4.95;;;;;;;;;;4957200;28;20663;-59
2021/08/14 01:50:06;;;;;;;17.60;5.00;;;;;;;;;;4983467;28;20105;-59
2021/08/14 01:52:34;;;;;;;19.80;5.82;;;;;;;;;;5003626;28;20129;-59
2021/08/14 01:54:59;;;;;;;24.05;5.20;;;;;;;;;;4971543;28;20037;-59
2021/08/14 01:57:25;;;;;;;17.88;5.63;;;;;;;;;;5005826;28;20044;-59
2021/08/14 01:59:51;;;;;;;32.20;6.57;;;;;;;;;;5005935;28;20037;-59
2021/08/14 02:02:19;;;;;;;17.10;4.90;;;;;;;;;;4988868;28;20041;-59
2021/08/14 02:04:47;;;;;;;15.38;5.10;;;;;;;;;;5005508;28;20045;-59
2021/08/14 02:07:15;;;;;;;25.67;5.90;;;;;;;;;;4986099;28;20033;-59
2021/08/14 02:09:40;;;;;;;20.45;5.95;;;;;;;;;;4973775;28;20045;-61
2021/08/14 02:12:08;;;;;;;21.38;5.97;;;;;;;;;;4988882;28;20041;-59
2021/08/14 02:14:38;;;;;;;27.38;6.60;;;;;;;;;;4988671;28;20041;-58
2021/08/14 02:17:06;;;;;;;27.02;5.22;;;;;;;;;;4986225;28;20119;-59
2021/08/14 02:19:34;;;;;;;24.63;6.05;;;;;;;;;;5000646;28;20099;-61
2021/08/14 02:21:59;;;;;;;33.90;6.82;;;;;;;;;;5004903;28;20053;-60
2021/08/14 02:24:25;;;;;;;18.48;5.32;;;;;;;;;;4988303;28;20167;-59
2021/08/14 02:26:50;;;;;;;27.08;6.22;;;;;;;;;;5004966;28;20021;-59
2021/08/14 02:29:16;;;;;;;32.55;6.80;;;;;;;;;;4990036;28;20255;-59
2021/08/14 02:31:42;;;;;;;28.25;5.85;;;;;;;;;;4986573;28;20075;-59
2021/08/14 02:34:12;;;;;;;27.92;6.35;;;;;;;;;;4984792;28;20034;-59
2021/08/14 02:36:38;;;;;;;21.58;5.97;;;;;;;;;;5004315;28;20044;-59
2021/08/14 02:39:06;;;;;;;28.95;6.15;;;;;;;;;;5002268;28;20619;-58
2021/08/14 02:41:34;;;;;;;24.85;5.93;;;;;;;;;;5003622;28;20044;-59
2021/08/14 02:43:59;;;;;;;25.70;6.45;;;;;;;;;;5003315;28;20037;-59
2021/08/14 02:46:27;;;;;;;27.67;6.85;;;;;;;;;;5002136;28;20449;-58
2021/08/14 02:48:53;;;;;;;21.02;7.10;;;;;;;;;;4955724;28;20079;-59
2021/08/14 02:51:21;;;;;;;26.30;6.07;;;;;;;;;;4986696;28;20037;-59
2021/08/14 02:53:48;;;;;;;24.13;6.45;;;;;;;;;;4988376;28;20025;-59
2021/08/14 02:56:14;;;;;;;24.02;6.43;;;;;;;;;;4990351;28;20060;-58
2021/08/14 02:58:42;;;;;;;15.75;5.45;;;;;;;;;;5004294;28;20039;-58
2021/08/14 03:01:09;;;;;;;24.75;5.93;;;;;;;;;;5004013;28;20045;-60
2021/08/14 03:03:35;;;;;;;22.30;5.90;;;;;;;;;;5001332;28;20049;-59
2021/08/14 03:06:03;;;;;;;24.35;5.88;;;;;;;;;;5004725;28;20045;-59
2021/08/14 03:08:32;;;;;;;36.65;6.22;;;;;;;;;;4985520;28;20313;-59
2021/08/14 03:10:58;;;;;;;24.73;6.57;;;;;;;;;;5002345;28;20630;-58
2021/08/14 03:13:23;;;;;;;29.23;6.85;;;;;;;;;;4982816;28;20107;-59
2021/08/14 03:15:54;;;;;;;15.25;5.60;;;;;;;;;;5001918;28;20535;-59
2021/08/14 03:18:22;;;;;;;33.13;7.85;;;;;;;;;;4997703;28;20034;-60
2021/08/14 03:20:50;;;;;;;13.15;5.50;;;;;;;;;;4969592;28;20120;-60
2021/08/14 03:23:16;;;;;;;31.92;6.43;;;;;;;;;;4970833;28;20063;-60
2021/08/14 03:25:44;;;;;;;22.85;5.50;;;;;;;;;;4985420;28;20060;-60
2021/08/14 03:28:14;;;;;;;21.58;6.25;;;;;;;;;;4985516;28;20052;-58
2021/08/14 03:30:39;;;;;;;29.08;6.60;;;;;;;;;;4983952;28;20057;-61
2021/08/14 03:33:07;;;;;;;18.15;5.95;;;;;;;;;;4971202;28;20109;-60
2021/08/14 03:35:37;;;;;;;22.58;7.03;;;;;;;;;;4983810;28;20049;-59
2021/08/14 03:38:05;;;;;;;29.80;7.43;;;;;;;;;;4957558;28;20046;-58
2021/08/14 03:40:31;;;;;;;35.38;7.15;;;;;;;;;;5000595;28;20404;-60
2021/08/14 03:42:59;;;;;;;20.75;6.28;;;;;;;;;;4985280;28;20762;-59
2021/08/14 03:45:26;;;;;;;23.17;6.90;;;;;;;;;;5001626;28;20041;-59
2021/08/14 03:47:54;;;;;;;26.15;6.72;;;;;;;;;;4985701;28;20029;-59
2021/08/14 03:50:23;;;;;;;22.63;6.40;;;;;;;;;;5002521;28;20033;-59
2021/08/14 03:52:50;;;;;;;31.30;6.70;;;;;;;;;;5001199;28;20029;-61
2021/08/14 03:55:16;;;;;;;24.13;6.38;;;;;;;;;;4983508;28;20040;-60
2021/08/14 03:57:42;;;;;;;29.05;6.28;;;;;;;;;;4984894;28;20074;-60
2021/08/14 04:00:08;;;;;;;25.73;6.68;;;;;;;;;;4983407;28;21726;-60
2021/08/14 04:02:34;;;;;;;29.50;6.82;;;;;;;;;;5001937;28;20061;-58
2021/08/14 04:05:00;;;;;;;23.02;6.53;;;;;;;;;;4968277;28;20129;-58
2021/08/14 04:07:28;;;;;;;24.13;7.05;;;;;;;;;;4972154;28;20040;-59
2021/08/14 04:09:55;;;;;;;28.38;7.95;;;;;;;;;;4951529;28;20033;-59
2021/08/14 04:12:20;;;;;;;23.65;7.50;;;;;;;;;;4985182;28;20120;-59
2021/08/14 04:14:46;;;;;;;28.27;6.95;;;;;;;;;;4999069;28;20039;-59
2021/08/14 04:17:11;;;;;;;23.50;6.82;;;;;;;;;;5002578;28;20461;-58
2021/08/14 04:19:37;;;;;;;29.73;7.85;;;;;;;;;;5002577;28;20045;-59
2021/08/14 04:22:03;;;;;;;30.45;6.65;;;;;;;;;;4984044;28;20067;-59
2021/08/14 04:24:31;;;;;;;18.13;6.80;;;;;;;;;;5001493;28;20091;-59
2021/08/14 04:26:56;;;;;;;25.25;6.32;;;;;;;;;;4972377;28;20111;-59
2021/08/14 04:29:22;;;;;;;31.17;6.32;;;;;;;;;;5001932;28;20579;-59
2021/08/14 04:31:48;;;;;;;26.27;6.70;;;;;;;;;;5002314;28;20036;-59
2021/08/14 04:34:18;;;;;;;36.70;7.05;;;;;;;;;;4985092;28;20041;-59
2021/08/14 04:36:44;;;;;;;24.38;6.40;;;;;;;;;;4988046;28;20382;-59
2021/08/14 04:39:14;;;;;;;26.75;6.35;;;;;;;;;;4984210;28;20121;-58
2021/08/14 04:41:42;;;;;;;33.00;6.47;;;;;;;;;;4986040;28;20026;-59
2021/08/14 04:44:15;;;;;;;30.90;7.38;;;;;;;;;;4997801;28;20053;-58
2021/08/14 04:46:43;;;;;;;27.70;5.85;;;;;;;;;;5002782;28;20037;-58
2021/08/14 04:49:09;;;;;;;28.42;6.35;;;;;;;;;;4997856;28;20037;-59
2021/08/14 04:51:37;;;;;;;19.30;6.65;;;;;;;;;;4970151;28;20114;-59
2021/08/14 04:54:05;;;;;;;29.60;6.78;;;;;;;;;;5000152;28;20057;-59
2021/08/14 04:56:33;;;;;;;29.55;6.47;;;;;;;;;;5001945;28;20151;-59
2021/08/14 04:59:00;;;;;;;20.35;6.38;;;;;;;;;;4986802;28;21077;-60
2021/08/14 05:01:27;;;;;;;29.55;6.93;;;;;;;;;;4982428;28;20044;-59
2021/08/14 05:03:58;;;;;;;24.17;6.22;;;;;;;;;;5000726;28;20033;-60
2021/08/14 05:06:25;;;;;;;25.77;6.10;;;;;;;;;;5004441;28;22289;-59
2021/08/14 05:08:51;;;;;;;24.45;5.70;;;;;;;;;;5003606;28;20033;-59
2021/08/14 05:11:21;;;;;;;28.58;6.82;;;;;;;;;;5005540;28;20091;-60
2021/08/14 05:13:47;;;;;;;29.70;6.00;;;;;;;;;;4988085;28;20037;-60
2021/08/14 05:16:12;;;;;;;26.42;5.35;;;;;;;;;;4975211;28;20669;-60
2021/08/14 05:18:37;;;;;;;23.92;6.10;;;;;;;;;;5004244;28;20044;-60
2021/08/14 05:21:03;;;;;;;17.02;5.18;;;;;;;;;;4985336;28;20037;-59
2021/08/14 05:23:31;;;;;;;25.83;5.40;;;;;;;;;;5004375;28;20033;-59
2021/08/14 05:25:59;;;;;;;19.67;5.35;;;;;;;;;;5004743;28;20052;-59
2021/08/14 05:28:24;;;;;;;25.85;6.45;;;;;;;;;;4986395;28;20041;-59
2021/08/14 05:30:50;;;;;;;24.88;5.57;;;;;;;;;;4988567;28;20025;-59
2021/08/14 05:33:15;;;;;;;28.38;5.18;;;;;;;;;;4973824;28;20037;-59
2021/08/14 05:35:43;;;;;;;27.38;5.25;;;;;;;;;;5003680;28;20037;-60
2021/08/14 05:38:08;;;;;;;29.83;5.78;;;;;;;;;;5004899;28;20033;-59
2021/08/14 05:40:34;;;;;;;20.80;5.20;;;;;;;;;;4989439;28;20041;-59
2021/08/14 05:43:03;;;;;;;24.25;4.72;;;;;;;;;;4983395;28;20497;-58
2021/08/14 05:45:29;;;;;;;22.73;5.07;;;;;;;;;;4985164;28;20133;-59
2021/08/14 05:47:56;;;;;;;15.23;4.60;;;;;;;;;;4967888;28;20038;-59
2021/08/14 05:50:22;;;;;;;17.60;5.20;;;;;;;;;;4968091;28;20042;-60
2021/08/14 05:52:50;;;;;;;22.60;5.28;;;;;;;;;;4983686;28;20038;-59
2021/08/14 05:55:18;;;;;;;23.92;5.60;;;;;;;;;;4984560;28;20021;-59
2021/08/14 05:57:44;;;;;;;20.38;5.03;;;;;;;;;;4985981;28;20038;-59
2021/08/14 06:00:11;;;;;;;19.30;5.07;;;;;;;;;;4968327;28;20037;-59
2021/08/14 06:02:39;;;;;;;24.55;5.43;;;;;;;;;;4953483;28;20053;-59
2021/08/14 06:05:09;;;;;;;17.08;4.45;;;;;;;;;;4985931;28;20065;-59
2021/08/14 06:07:34;;;;;;;23.48;4.95;;;;;;;;;;4968114;28;21015;-59
2021/08/14 06:10:02;;;;;;;23.15;4.60;;;;;;;;;;4965624;28;20037;-59
2021/08/14 06:12:27;;;;;;;17.52;4.32;;;;;;;;;;4968957;28;20123;-59
2021/08/14 06:14:55;;;;;;;14.48;4.63;;;;;;;;;;4966189;28;20041;-60
2021/08/14 06:17:21;;;;;;;19.30;4.45;;;;;;;;;;4965548;28;20042;-59
2021/08/14 06:19:49;;;;;;;18.75;4.60;;;;;;;;;;4985477;28;20391;-61
2021/08/14 06:22:16;;;;;;;16.92;4.63;;;;;;;;;;4983256;28;20053;-60
2021/08/14 06:24:44;;;;;;;24.15;5.13;;;;;;;;;;4983433;28;20114;-60
2021/08/14 06:27:10;;;;;;;19.67;4.38;;;;;;;;;;4968332;28;20038;-61
2021/08/14 06:29:38;;;;;;;23.67;4.68;;;;;;;;;;4954124;28;20366;-59
2021/08/14 06:32:06;;;;;;;19.50;4.03;;;;;;;;;;4984127;28;20026;-59
2021/08/14 06:34:36;;;;;;;15.57;4.30;;;;;;;;;;4965281;28;20038;-61
2021/08/14 06:37:02;;;;;;;17.95;4.30;;;;;;;;;;4965803;28;22113;-61
2021/08/14 06:39:30;;;;;;;19.42;3.95;;;;;;;;;;4952218;28;20042;-60
2021/08/14 06:41:55;;;;;;;23.88;4.82;;;;;;;;;;4965684;28;20595;-60
2021/08/14 06:44:21;;;;;;;18.45;4.35;;;;;;;;;;4991487;28;20045;-59
2021/08/14 06:46:49;;;;;;;16.02;4.25;;;;;;;;;;4985955;28;20017;-61
2021/08/14 06:49:16;;;;;;;14.30;4.22;;;;;;;;;;4985708;28;20026;-59
2021/08/14 06:51:46;;;;;;;17.05;4.28;;;;;;;;;;4985561;28;20037;-60
2021/08/14 06:54:12;;;;;;;13.80;3.20;;;;;;;;;;5003451;28;20044;-60
2021/08/14 06:56:37;;;;;;;18.35;5.00;;;;;;;;;;5001222;28;20034;-60
2021/08/14 06:59:02;;;;;;;15.68;4.00;;;;;;;;;;4970275;28;20977;-60
2021/08/14 07:01:28;;;;;;;17.48;4.13;;;;;;;;;;4985665;28;20033;-61
2021/08/14 07:03:55;;;;;;;21.00;4.72;;;;;;;;;;4987827;28;20041;-60
2021/08/14 07:06:22;;;;;;;19.50;4.32;;;;;;;;;;5004828;28;20025;-60
2021/08/14 07:08:48;;;;;;;18.95;4.03;;;;;;;;;;5003128;28;20075;-60
2021/08/14 07:11:16;;;;;;;13.35;3.08;;;;;;;;;;4970172;28;20025;-60
2021/08/14 07:13:44;;;;;;;16.45;4.10;;;;;;;;;;5003995;28;20045;-60
2021/08/14 07:16:12;;;;;;;21.50;4.75;;;;;;;;;;4986118;28;20417;-59
2021/08/14 07:18:40;;;;;;;14.70;4.10;;;;;;;;;;4973107;28;20033;-59
2021/08/14 07:21:08;;;;;;;17.02;3.65;;;;;;;;;;5002123;28;21053;-59
2021/08/14 07:23:33;;;;;;;14.52;3.75;;;;;;;;;;4986841;28;20861;-59
2021/08/14 07:25:59;;;;;;;19.23;4.20;;;;;;;;;;5003100;28;20037;-59
2021/08/14 07:28:25;;;;;;;16.77;4.32;;;;;;;;;;5002200;28;20025;-59
2021/08/14 07:30:50;;;;;;;11.95;3.42;;;;;;;;;;5000092;28;20358;-60
2021/08/14 07:33:16;;;;;;;15.45;3.63;;;;;;;;;;4971386;28;20561;-60
2021/08/14 07:35:43;;;;;;;22.88;4.43;;;;;;;;;;5001614;28;20084;-59
2021/08/14 07:38:11;;;;;;;16.77;3.88;;;;;;;;;;5003256;28;20029;-61
2021/08/14 07:40:39;;;;;;;18.48;3.78;;;;;;;;;;5003571;28;20037;-60
2021/08/14 07:43:08;;;;;;;13.50;3.15;;;;;;;;;;5003009;28;20312;-58
2021/08/14 07:45:36;;;;;;;16.45;3.75;;;;;;;;;;5001359;28;20153;-59
2021/08/14 07:48:08;;;;;;;19.48;4.03;;;;;;;;;;4988303;28;20033;-60
2021/08/14 07:50:36;;;;;;;16.83;4.43;;;;;;;;;;5004064;28;20571;-61
2021/08/14 07:53:03;;;;;;;15.18;3.78;;;;;;;;;;5004496;28;20029;-60
2021/08/14 07:55:29;;;;;;;17.85;3.53;;;;;;;;;;5002191;28;20029;-60
2021/08/14 07:57:59;;;;;;;17.35;4.05;;;;;;;;;;4984768;28;20030;-59
2021/08/14 08:00:26;;;;;;;15.23;3.65;;;;;;;;;;5000522;28;20102;-61
2021/08/14 08:02:52;;;;;;;13.90;3.55;;;;;;;;;;5002091;28;20497;-61
2021/08/14 08:05:20;;;;;;;11.75;3.42;;;;;;;;;;5001918;28;20049;-61
2021/08/14 08:07:49;;;;;;;11.10;3.22;;;;;;;;;;5000842;28;20137;-60
2021/08/14 08:10:20;;;;;;;11.48;3.50;;;;;;;;;;4984241;28;20045;-60
2021/08/14 08:12:46;;;;;;;11.70;3.47;;;;;;;;;;4982140;28;20564;-59
2021/08/14 08:15:15;;;;;;;14.57;3.60;;;;;;;;;;5002255;28;20091;-61
2021/08/14 08:17:43;;;;;;;13.43;3.33;;;;;;;;;;5002664;28;20053;-61
2021/08/14 08:20:09;;;;;;;13.45;3.08;;;;;;;;;;4983781;28;20139;-61
2021/08/14 08:22:35;;;;;;;15.45;3.08;;;;;;;;;;5001806;28;20037;-60
2021/08/14 08:25:01;;;;;;;10.00;2.70;;;;;;;;;;4967675;28;20041;-60
2021/08/14 08:27:28;;;;;;;12.98;2.67;;;;;;;;;;4985910;28;20021;-60
2021/08/14 08:29:54;;;;;;;12.43;2.55;;;;;;;;;;5002825;28;20076;-61
2021/08/14 08:32:24;;;;;;;11.32;2.63;;;;;;;;;;5002942;28;20026;-62
2021/08/14 08:34:49;;;;;;;13.73;2.72;;;;;;;;;;5001132;28;20058;-61
2021/08/14 08:37:17;;;;;;;14.95;2.97;;;;;;;;;;4972642;28;20121;-60
2021/08/14 08:39:46;;;;;;;8.65;2.63;;;;;;;;;;5001973;28;20582;-61
2021/08/14 08:42:14;;;;;;;14.40;3.50;;;;;;;;;;5007686;28;20025;-61
2021/08/14 08:44:39;;;;;;;11.43;2.78;;;;;;;;;;4988061;28;20069;-61
2021/08/14 08:47:06;;;;;;;9.43;2.10;;;;;;;;;;4988736;28;20052;-62
2021/08/14 08:49:33;;;;;;;14.65;2.70;;;;;;;;;;5005315;28;20118;-61
2021/08/14 08:52:04;;;;;;;7.80;2.42;;;;;;;;;;4972990;28;20030;-60
2021/08/14 08:54:32;;;;;;;9.70;3.10;;;;;;;;;;4988030;28;20040;-59
2021/08/14 08:56:57;;;;;;;7.15;2.00;;;;;;;;;;4999685;28;20048;-60
2021/08/14 08:59:25;;;;;;;9.88;2.58;;;;;;;;;;4987999;28;20548;-59
2021/08/14 09:01:51;;;;;;;9.75;2.53;;;;;;;;;;5006902;28;20037;-61
2021/08/14 09:04:27;;;;;;;13.23;2.70;;;;;;;;;;5005577;28;20384;-60
2021/08/14 09:06:56;;;;;;;12.52;2.60;;;;;;;;;;5007002;28;20051;-60
2021/08/14 09:09:29;;;;;;;13.07;2.35;;;;;;;;;;4974649;28;20040;-60
2021/08/14 09:12:02;;;;;;;12.93;2.45;;;;;;;;;;4988218;28;20060;-62
2021/08/14 09:15:04;;;;;;;10.88;2.38;;;;;;;;;;5006461;28;20037;-61
2021/08/14 09:17:32;;;;;;;10.20;2.13;;;;;;;;;;4911102;29;20178;-60
2021/08/14 09:20:12;;;;;;;10.85;2.45;;;;;;;;;;4989015;28;20037;-60
2021/08/14 09:22:42;;;;;;;14.75;2.28;;;;;;;;;;4988289;28;20045;-61
2021/08/14 09:25:21;;;;;;;10.18;2.30;;;;;;;;;;5003480;28;20053;-61
2021/08/14 09:27:51;;;;;;;15.00;2.25;;;;;;;;;;5005204;28;21917;-61
2021/08/14 09:30:17;;;;;;;6.18;2.00;;;;;;;;;;5005625;28;20040;-61
2021/08/14 09:32:43;;;;;;;14.45;2.53;;;;;;;;;;4988731;28;20025;-60
2021/08/14 09:35:11;;;;;;;15.70;2.63;;;;;;;;;;5003736;28;20933;-62
2021/08/14 09:37:39;;;;;;;11.00;2.85;;;;;;;;;;5003336;28;20038;-60
2021/08/14 09:40:08;;;;;;;11.25;2.53;;;;;;;;;;5005460;28;20049;-61
2021/08/14 09:42:48;;;;;;;11.50;2.45;;;;;;;;;;4987920;28;20057;-61
2021/08/14 09:45:17;;;;;;;8.98;2.85;;;;;;;;;;5002831;28;20053;-60
2021/08/14 09:47:43;;;;;;;7.43;2.22;;;;;;;;;;4972862;28;20186;-60
2021/08/14 09:50:13;;;;;;;12.75;2.53;;;;;;;;;;4969049;28;20021;-60
2021/08/14 09:52:41;;;;;;;8.05;2.88;;;;;;;;;;4987683;28;20031;-60
2021/08/14 09:55:11;;;;;;;10.90;2.55;;;;;;;;;;5003705;28;20912;-61
2021/08/14 09:57:40;;;;;;;8.70;2.40;;;;;;;;;;5004831;28;20029;-61
2021/08/14 10:00:06;;;;;;;11.43;2.40;;;;;;;;;;5001259;28;20033;-61
2021/08/14 10:02:33;;;;;;;7.68;2.17;;;;;;;;;;5005142;28;20029;-59
2021/08/14 10:04:58;;;;;;;7.82;2.60;;;;;;;;;;4985899;28;20526;-61
2021/08/14 10:07:24;;;;;;;11.90;2.38;;;;;;;;;;4989377;28;20034;-60
2021/08/14 10:09:50;;;;;;;13.82;3.35;;;;;;;;;;4971361;28;20034;-60
2021/08/14 10:12:18;;;;;;;5.22;2.15;;;;;;;;;;4989548;28;20041;-60
2021/08/14 10:14:45;;;;;;;15.40;3.13;;;;;;;;;;5003581;28;20420;-59
2021/08/14 10:17:15;;;;;;;8.73;2.45;;;;;;;;;;5005021;28;20033;-61
2021/08/14 10:19:43;;;;;;;7.65;2.95;;;;;;;;;;4985669;28;20164;-60
2021/08/14 10:22:11;;;;;;;9.25;2.20;;;;;;;;;;4974708;28;20037;-62
2021/08/14 10:24:43;;;;;;;10.55;3.05;;;;;;;;;;5003011;28;20167;-60
2021/08/14 10:27:12;;;;;;;11.90;2.80;;;;;;;;;;5005963;28;20026;-61
2021/08/14 10:29:44;;;;;;;11.57;3.53;;;;;;;;;;4986074;28;20021;-59
2021/08/14 10:32:12;;;;;;;;;;;;;;;;;;4991334;28;20120;-61
2021/08/14 10:34:40;;;;;;;11.65;2.35;;;;;;;;;;4989979;28;19913;-60
2021/08/14 10:37:28;;;;;;;6.53;2.50;;;;;;;;;;4986074;28;20041;-61
2021/08/14 10:39:55;;;;;;;15.05;2.80;;;;;;;;;;4992325;28;20099;-62
2021/08/14 10:42:45;;;;;;;9.48;2.38;;;;;;;;;;5001751;28;20057;-61
2021/08/14 10:45:14;;;;;;;8.23;2.50;;;;;;;;;;5003241;28;20046;-61
2021/08/14 10:47:44;;;;;;;12.30;2.60;;;;;;;;;;5004158;28;20108;-61
2021/08/14 10:50:31;;;;;;;7.60;2.30;;;;;;;;;;5003240;28;20250;-59
2021/08/14 10:53:18;;;;;;;8.63;2.40;;;;;;;;;;5001627;28;20041;-61
2021/08/14 10:55:55;;;;;;;11.55;3.00;;;;;;;;;;5003680;28;20048;-60
2021/08/14 10:58:37;;;;;;;16.05;2.67;;;;;;;;;;4987792;28;20037;-61
2021/08/14 11:01:03;;;;;;;10.68;2.47;;;;;;;;;;5000988;28;20099;-61
2021/08/14 11:03:32;;;;;;;10.45;2.45;;;;;;;;;;5002619;28;20109;-61
2021/08/14 11:06:19;;;;;;;11.73;2.40;;;;;;;;;;5003968;28;20117;-61
2021/08/14 11:08:44;;;;;;;;;;;;;;;;;;5002913;28;20025;-61
2021/08/14 11:11:28;;;;;;;9.25;2.60;;;;;;;;;;5001638;28;19913;-60
2021/08/14 11:14:25;;;;;;;10.57;2.88;;;;;;;;;;5001039;28;20036;-60
2021/08/14 11:17:02;;;;;;;15.52;2.70;;;;;;;;;;4995802;28;20046;-60
2021/08/14 11:20:04;;;;;;;7.70;2.03;;;;;;;;;;4984011;28;20733;-61
2021/08/14 11:22:40;;;;;;;3.85;1.90;;;;;;;;;;4906610;29;20067;-61
2021/08/14 11:25:22;;;;;;;7.53;1.85;;;;;;;;;;4987217;28;20052;-62
2021/08/14 11:27:54;;;;;;;5.05;1.95;;;;;;;;;;4987248;28;20324;-61
2021/08/14 11:30:22;;;;;;;6.67;1.70;;;;;;;;;;5001744;28;20033;-62
2021/08/14 11:32:48;;;;;;;4.20;1.55;;;;;;;;;;4973064;28;20064;-61
2021/08/14 11:35:18;;;;;;;5.53;1.60;;;;;;;;;;5000594;28;20137;-61
2021/08/14 11:38:02;;;;;;;5.72;1.90;;;;;;;;;;4986879;28;20150;-60
2021/08/14 11:40:31;;;;;;;7.15;1.80;;;;;;;;;;5000908;28;20041;-60
2021/08/14 11:42:58;;;;;;;6.55;1.60;;;;;;;;;;4989164;28;20036;-62
2021/08/14 11:45:28;;;;;;;4.15;1.13;;;;;;;;;;5001027;28;20073;-62
2021/08/14 11:47:55;;;;;;;5.50;1.73;;;;;;;;;;4985747;28;20049;-60
2021/08/14 11:50:30;;;;;;;4.75;1.33;;;;;;;;;;5002647;28;20018;-61
2021/08/14 11:52:56;;;;;;;3.63;1.40;;;;;;;;;;4986123;28;20059;-62
2021/08/14 11:55:21;;;;;;;4.82;1.38;;;;;;;;;;5001696;28;20041;-66
2021/08/14 11:57:49;;;;;;;4.75;1.58;;;;;;;;;;4987826;28;20520;-61
2021/08/14 12:00:17;;;;;;;4.38;1.30;;;;;;;;;;5002044;28;20295;-62
2021/08/14 12:02:44;;;;;;;3.25;1.35;;;;;;;;;;4984721;28;20037;-61
2021/08/14 12:05:10;;;;;;;4.07;1.45;;;;;;;;;;5003386;28;20152;-62
2021/08/14 12:07:35;;;;;;;4.53;1.80;;;;;;;;;;5003617;28;20022;-61
2021/08/14 12:10:01;;;;;;;6.00;1.45;;;;;;;;;;4987930;28;20052;-60
2021/08/14 12:12:28;;;;;;;5.57;1.30;;;;;;;;;;4984343;28;20025;-61
2021/08/14 12:14:53;;;;;;;3.00;1.20;;;;;;;;;;4969422;28;20587;-59
2021/08/14 12:17:19;;;;;;;3.20;1.38;;;;;;;;;;4965121;28;20042;-61
2021/08/14 12:19:47;;;;;;;3.28;1.70;;;;;;;;;;4984192;28;21940;-63
2021/08/14 12:22:14;;;;;;;3.05;1.42;;;;;;;;;;5001399;28;20014;-61
2021/08/14 12:24:43;;;;;;;4.82;1.45;;;;;;;;;;5001459;28;20091;-61
2021/08/14 12:27:21;;;;;;;3.75;1.50;;;;;;;;;;4988554;28;20037;-61
2021/08/14 12:29:49;;;;;;;4.82;1.85;;;;;;;;;;5000287;28;20037;-64
2021/08/14 12:32:15;;;;;;;3.65;1.42;;;;;;;;;;5003570;28;20021;-63
2021/08/14 12:34:42;;;;;;;5.10;1.30;;;;;;;;;;5002054;28;20099;-63
2021/08/14 12:37:08;;;;;;;5.57;1.67;;;;;;;;;;4968911;28;21942;-63
2021/08/14 12:39:45;;;;;;;5.13;1.57;;;;;;;;;;4985408;28;20100;-62
2021/08/14 12:42:14;;;;;;;6.40;1.80;;;;;;;;;;5001812;28;20292;-63
2021/08/14 12:44:41;;;;;;;5.63;1.52;;;;;;;;;;5002732;28;20049;-62
2021/08/14 12:47:07;;;;;;;4.57;1.08;;;;;;;;;;4984627;28;20030;-61
2021/08/14 12:49:32;;;;;;;10.63;1.58;;;;;;;;;;4983636;28;20064;-62
2021/08/14 12:52:04;;;;;;;3.72;1.38;;;;;;;;;;4986257;28;20049;-62
2021/08/14 12:54:35;;;;;;;6.78;1.63;;;;;;;;;;4999273;28;20030;-61
2021/08/14 12:57:11;;;;;;;3.63;1.52;;;;;;;;;;4981105;28;20037;-59
2021/08/14 12:59:37;;;;;;;3.00;1.60;;;;;;;;;;4984622;28;20346;-61
2021/08/14 13:02:05;;;;;;;4.55;1.42;;;;;;;;;;4999042;28;20042;-61
2021/08/14 13:04:36;;;;;;;3.88;1.60;;;;;;;;;;4999306;28;20977;-63
2021/08/14 13:07:05;;;;;;;4.97;1.50;;;;;;;;;;4982013;28;20034;-61
2021/08/14 13:09:30;;;;;;;6.38;2.00;;;;;;;;;;4969450;28;20029;-60
2021/08/14 13:12:03;;;;;;;5.35;1.50;;;;;;;;;;5003164;28;20038;-58
2021/08/14 13:14:28;;;;;;;3.45;1.75;;;;;;;;;;5001692;28;20033;-61
2021/08/14 13:16:54;;;;;;;7.85;1.70;;;;;;;;;;5002301;28;20025;-60
2021/08/14 13:19:23;;;;;;;5.78;1.65;;;;;;;;;;4999923;28;20646;-62
2021/08/14 13:21:49;;;;;;;3.88;1.40;;;;;;;;;;5001542;28;20041;-60
2021/08/14 13:24:15;;;;;;;4.93;1.52;;;;;;;;;;4983387;28;21016;-61
2021/08/14 13:26:43;;;;;;;3.10;1.60;;;;;;;;;;4989081;28;20049;-63
2021/08/14 13:29:11;;;;;;;3.15;1.58;;;;;;;;;;4974325;28;20175;-61
2021/08/14 13:31:40;;;;;;;4.82;1.80;;;;;;;;;;4986314;28;20033;-61
2021/08/14 13:34:09;;;;;;;4.20;1.42;;;;;;;;;;4987870;28;20072;-62
2021/08/14 13:36:39;;;;;;;;;;;;;;;;;;4983936;28;20050;-61
2021/08/14 13:39:05;;;;;;;2.88;1.27;;;;;;;;;;5004197;28;19921;-61
2021/08/14 13:41:30;;;;;;;5.38;1.92;;;;;;;;;;4988850;28;20173;-61
2021/08/14 13:43:58;;;;;;;5.45;1.88;;;;;;;;;;4989863;28;20042;-62
2021/08/14 13:46:26;;;;;;;3.55;1.70;;;;;;;;;;5002436;28;20124;-60
2021/08/14 13:48:51;;;;;;;3.85;1.60;;;;;;;;;;5004398;28;20463;-62
2021/08/14 13:51:21;;;;;;;4.65;1.60;;;;;;;;;;5002667;28;20027;-61
2021/08/14 13:53:47;;;;;;;5.18;1.77;;;;;;;;;;5002438;28;20021;-63
2021/08/14 13:56:15;;;;;;;5.00;2.35;;;;;;;;;;4969847;28;20079;-64
2021/08/14 13:58:40;;;;;;;7.65;1.60;;;;;;;;;;4988250;28;20037;-62
2021/08/14 14:01:06;;;;;;;4.95;1.35;;;;;;;;;;4990704;28;20029;-60
2021/08/14 14:03:34;;;;;;;4.20;2.03;;;;;;;;;;5003224;28;20037;-61
2021/08/14 14:05:59;;;;;;;3.00;1.23;;;;;;;;;;4971712;28;20072;-61
2021/08/14 14:08:25;;;;;;;4.28;1.80;;;;;;;;;;4987514;28;20156;-60
2021/08/14 14:10:50;;;;;;;5.32;1.85;;;;;;;;;;4986086;28;20037;-63
2021/08/14 14:13:16;;;;;;;3.67;1.52;;;;;;;;;;4986343;28;20884;-61
2021/08/14 14:15:44;;;;;;;3.67;2.00;;;;;;;;;;5002815;28;20116;-61
2021/08/14 14:18:09;;;;;;;4.25;1.63;;;;;;;;;;5003897;28;20029;-61
2021/08/14 14:20:38;;;;;;;4.25;2.05;;;;;;;;;;4984835;28;20052;-62
2021/08/14 14:23:04;;;;;;;7.63;2.03;;;;;;;;;;5004350;28;20018;-62
2021/08/14 14:25:30;;;;;;;4.07;1.88;;;;;;;;;;4983497;28;20111;-62
2021/08/14 14:27:57;;;;;;;3.17;1.55;;;;;;;;;;4988561;28;20037;-62
2021/08/14 14:30:23;;;;;;;5.38;1.50;;;;;;;;;;4989152;28;20088;-60
2021/08/14 14:32:51;;;;;;;3.30;1.45;;;;;;;;;;5003995;28;20037;-62
2021/08/14 14:35:18;;;;;;;5.03;1.65;;;;;;;;;;5003090;28;20125;-62
2021/08/14 14:37:46;;;;;;;6.55;1.35;;;;;;;;;;4981288;28;20021;-61
2021/08/14 14:40:12;;;;;;;3.03;1.67;;;;;;;;;;4979521;28;20037;-61
2021/08/14 14:42:40;;;;;;;5.18;1.80;;;;;;;;;;4998406;28;20091;-62